createdAt,value
2023-01-07T00:03:16.630Z,64.80
2023-01-07T00:08:18.890Z,64.50
2023-01-07T00:13:21.119Z,64.70
2023-01-07T00:18:23.324Z,64.20
2023-01-07T00:23:26.464Z,64.00
2023-01-07T00:28:28.845Z,64.20
2023-01-07T00:33:31.278Z,64.90
2023-01-07T00:38:33.601Z,63.70
2023-01-07T00:43:35.930Z,64.20
2023-01-07T00:48:38.183Z,64.60
2023-01-07T00:53:41.100Z,63.70
2023-01-07T00:58:43.822Z,63.80
2023-01-07T01:03:46.162Z,64.30
2023-01-07T01:08:48.505Z,64.00
2023-01-07T01:13:51.383Z,63.30
2023-01-07T01:18:53.697Z,64.20
2023-01-07T01:23:56.416Z,64.30
2023-01-07T01:28:58.687Z,64.20
2023-01-07T01:34:01.449Z,63.20
2023-01-07T01:39:05.043Z,64.20
2023-01-07T01:49:46.261Z,64.00
2023-01-07T01:54:54.917Z,62.70
2023-01-07T01:59:58.508Z,61.30
2023-01-07T02:05:03.737Z,62.00
2023-01-07T02:15:49.071Z,61.80
2023-01-07T02:21:03.549Z,61.90
2023-01-07T02:26:45.768Z,61.90
2023-01-07T02:37:19.622Z,62.50
2023-01-07T02:47:53.544Z,62.40
2023-01-07T02:52:56.005Z,62.90
2023-01-07T03:03:37.489Z,62.70
2023-01-07T03:14:08.941Z,63.50
2023-01-07T03:19:18.441Z,63.40
2023-01-07T03:24:23.398Z,63.70
2023-01-07T03:29:26.046Z,63.60
2023-01-07T03:34:29.925Z,63.50
2023-01-07T03:39:34.649Z,63.40
2023-01-07T03:44:40.121Z,63.30
2023-01-07T03:49:42.853Z,63.10
2023-01-07T03:54:45.224Z,63.10
2023-01-07T03:59:48.381Z,62.90
2023-01-07T04:04:51.220Z,62.60
2023-01-07T04:09:55.281Z,62.70
2023-01-07T04:14:59.219Z,62.50
2023-01-07T04:20:02.354Z,62.80
2023-01-07T04:25:05.165Z,62.50
2023-01-07T04:30:08.081Z,62.50
2023-01-07T04:35:10.169Z,62.50
2023-01-07T04:40:12.481Z,62.50
2023-01-07T04:45:15.175Z,62.30
2023-01-07T04:50:17.406Z,62.30
2023-01-07T04:55:20.544Z,62.30
2023-01-07T05:00:23.679Z,62.20
2023-01-07T05:05:28.499Z,62.20
2023-01-07T05:10:31.280Z,62.00
2023-01-07T05:15:34.085Z,62.00
2023-01-07T05:20:36.634Z,62.00
2023-01-07T05:25:40.525Z,62.10
2023-01-07T05:30:42.874Z,62.10
2023-01-07T05:35:49.028Z,62.10
2023-01-07T05:40:52.944Z,62.00
2023-01-07T05:45:59.363Z,62.10
2023-01-07T05:51:01.646Z,62.00
2023-01-07T05:56:04.134Z,62.10
2023-01-07T06:01:06.431Z,62.10
2023-01-07T06:06:08.803Z,62.20
2023-01-07T06:11:11.134Z,62.20
2023-01-07T06:16:14.453Z,62.20
2023-01-07T06:21:18.379Z,62.40
2023-01-07T06:26:20.464Z,62.50
2023-01-07T06:31:22.613Z,62.50
2023-01-07T06:36:24.814Z,62.70
2023-01-07T06:41:26.915Z,62.80
2023-01-07T06:46:29.169Z,62.90
2023-01-07T06:51:31.644Z,63.40
2023-01-07T06:56:33.904Z,63.40
2023-01-07T07:01:36.220Z,63.30
2023-01-07T07:06:38.501Z,63.20
2023-01-07T07:11:40.722Z,63.20
2023-01-07T07:16:42.937Z,63.30
2023-01-07T07:21:46.675Z,63.30
2023-01-07T07:26:49.252Z,62.60
2023-01-07T07:31:51.498Z,63.60
2023-01-07T07:36:53.608Z,63.60
2023-01-07T07:41:55.801Z,64.50
2023-01-07T07:46:58.260Z,65.40
2023-01-07T07:52:00.439Z,64.70
2023-01-07T07:57:03.935Z,65.00
2023-01-07T08:02:06.107Z,69.10
2023-01-07T08:07:10.342Z,68.00
2023-01-07T08:12:12.573Z,66.70
2023-01-07T08:17:14.982Z,57.50
2023-01-07T08:22:17.219Z,60.60
2023-01-07T08:27:19.558Z,58.90
2023-01-07T08:32:21.922Z,56.80
2023-01-07T08:37:24.280Z,59.20
2023-01-07T08:42:27.034Z,54.70
2023-01-07T08:47:29.324Z,54.00
2023-01-07T08:52:31.682Z,56.60
2023-01-07T08:57:33.956Z,55.60
2023-01-07T09:02:36.400Z,55.80
2023-01-07T09:07:38.960Z,51.20
2023-01-07T09:12:41.270Z,51.10
2023-01-07T09:17:43.510Z,51.20
2023-01-07T09:22:45.846Z,51.60
2023-01-07T09:27:49.459Z,51.80
2023-01-07T09:32:51.761Z,51.10
2023-01-07T09:37:54.101Z,51.80
2023-01-07T09:48:23.863Z,53.10
2023-01-07T09:53:34.289Z,53.70
2023-01-07T09:58:38.031Z,54.50
2023-01-07T10:03:51.838Z,55.00
2023-01-07T10:24:48.742Z,55.60
2023-01-07T10:29:55.222Z,56.30
2023-01-07T10:34:59.928Z,56.20
2023-01-07T10:51:10.711Z,53.90
2023-01-07T11:12:30.447Z,55.40
2023-01-07T11:17:40.561Z,55.60
2023-01-07T11:22:42.831Z,55.60
2023-01-07T11:27:45.860Z,56.10
2023-01-07T11:32:59.451Z,56.60
2023-01-07T11:38:01.797Z,56.30
2023-01-07T11:43:22.401Z,56.20
2023-01-07T11:59:16.897Z,56.90
2023-01-07T12:14:48.240Z,57.10
2023-01-07T12:20:25.173Z,59.10
2023-01-07T12:31:32.674Z,58.30
2023-01-07T12:41:52.254Z,60.60
2023-01-07T12:47:31.212Z,61.40
2023-01-07T13:03:56.223Z,61.60
2023-01-07T13:09:09.200Z,60.70
2023-01-07T13:14:23.410Z,59.80
2023-01-07T13:19:26.746Z,60.60
2023-01-07T13:24:56.281Z,59.70
2023-01-07T13:30:24.172Z,59.90
2023-01-07T13:35:57.719Z,59.80
2023-01-07T13:46:35.701Z,60.60
2023-01-07T13:51:38.997Z,62.10
2023-01-07T13:56:41.257Z,62.20
2023-01-07T14:02:20.717Z,62.20
2023-01-07T14:07:23.952Z,61.50
2023-01-07T14:17:57.582Z,61.80
2023-01-07T14:33:47.017Z,62.50
2023-01-07T14:39:05.930Z,63.20
2023-01-07T14:44:29.137Z,63.30
2023-01-07T14:49:44.027Z,63.30
2023-01-07T15:11:50.044Z,64.00
2023-01-07T15:16:53.593Z,63.80
2023-01-07T15:37:53.439Z,63.80
2023-01-07T15:42:58.443Z,63.10
2023-01-07T15:48:12.276Z,62.90
2023-01-07T15:58:48.805Z,62.60
2023-01-07T16:03:55.843Z,62.40
2023-01-07T16:08:59.620Z,62.40
2023-01-07T16:14:04.714Z,62.40
2023-01-07T16:19:06.948Z,62.40
2023-01-07T16:24:16.305Z,62.30
2023-01-07T16:29:25.363Z,62.30
2023-01-07T16:39:42.872Z,62.30
2023-01-07T16:49:57.518Z,62.80
2023-01-07T16:55:00.159Z,62.40
2023-01-07T17:00:04.267Z,62.10
2023-01-07T17:10:35.846Z,62.50
2023-01-07T17:15:39.786Z,62.60
2023-01-07T17:31:07.397Z,62.70
2023-01-07T17:36:19.595Z,62.60
2023-01-07T17:41:43.571Z,62.80
2023-01-07T17:46:45.844Z,62.70
2023-01-07T17:51:49.410Z,62.50
2023-01-07T17:56:52.534Z,62.60
2023-01-07T18:01:56.659Z,62.60
2023-01-07T18:06:59.056Z,62.70
2023-01-07T18:12:21.205Z,62.70
2023-01-07T18:17:23.408Z,62.80
2023-01-07T18:22:25.745Z,62.90
2023-01-07T18:27:27.982Z,63.10
2023-01-07T18:32:30.204Z,63.10
2023-01-07T18:37:32.432Z,62.90
2023-01-07T18:42:35.689Z,63.30
2023-01-07T18:47:38.186Z,63.40
2023-01-07T18:52:41.374Z,63.60
2023-01-07T18:57:43.715Z,63.70
2023-01-07T19:02:46.012Z,63.70
2023-01-07T19:07:48.291Z,63.60
2023-01-07T19:12:50.659Z,63.80
2023-01-07T19:17:52.996Z,63.60
2023-01-07T19:23:00.243Z,63.60
2023-01-07T19:28:02.650Z,63.70
2023-01-07T19:33:04.884Z,63.50
2023-01-07T19:38:07.149Z,63.60
2023-01-07T19:43:09.548Z,63.40
2023-01-07T19:48:11.922Z,63.40
2023-01-07T19:53:14.138Z,63.60
2023-01-07T19:58:16.640Z,63.60
2023-01-07T20:03:18.933Z,63.60
2023-01-07T20:08:21.221Z,63.70
2023-01-07T20:13:23.599Z,63.90
2023-01-07T20:18:25.849Z,64.00
2023-01-07T20:23:28.049Z,63.90
2023-01-07T20:28:30.316Z,64.10
2023-01-07T20:33:33.157Z,64.20
2023-01-07T20:38:36.107Z,64.10
2023-01-07T20:43:38.400Z,64.00
2023-01-07T20:48:40.620Z,63.80
2023-01-07T20:53:43.516Z,63.70
2023-01-07T20:58:46.270Z,63.60
2023-01-07T21:03:48.997Z,64.00
2023-01-07T21:08:51.433Z,64.00
2023-01-07T21:13:56.260Z,64.10
2023-01-07T21:18:58.806Z,64.20
2023-01-07T21:24:01.028Z,64.20
2023-01-07T21:29:03.344Z,64.20
2023-01-07T21:34:05.535Z,64.20
2023-01-07T21:39:08.640Z,64.20
2023-01-07T21:44:12.242Z,64.30
2023-01-07T21:49:14.677Z,64.40
2023-01-07T21:54:17.260Z,64.30
2023-01-07T22:12:40.140Z,63.20
2023-01-07T22:17:43.019Z,65.00
2023-01-07T22:22:45.395Z,64.60
2023-01-07T22:27:47.729Z,64.60
2023-01-07T22:32:49.948Z,64.70
2023-01-07T22:37:52.940Z,64.80
2023-01-07T22:42:58.851Z,64.70
2023-01-07T22:48:02.295Z,65.10
2023-01-07T22:53:05.053Z,64.80
2023-01-07T22:58:07.604Z,65.00
2023-01-07T23:03:09.965Z,65.00
2023-01-07T23:08:12.531Z,65.00
2023-01-07T23:13:15.057Z,64.90
2023-01-07T23:18:17.995Z,65.00
2023-01-07T23:23:20.261Z,65.00
2023-01-07T23:28:22.552Z,65.00
2023-01-07T23:33:24.868Z,64.90
2023-01-07T23:38:27.140Z,64.90
2023-01-07T23:43:29.685Z,65.00
2023-01-07T23:48:33.823Z,65.00
2023-01-07T23:53:36.796Z,65.20
2023-01-07T23:58:39.141Z,65.10
